Time;durP1;ratioP1;P1;durP2;ratioP2;P2;SDS_P1;SDS_P2;PMS_P1;PMS_P2;Temp;Humidity;BMP_temperature;BMP_pressure;BME280_temperature;BME280_humidity;BME280_pressure;Samples;Min_cycle;Max_cycle;Signal;HPM_P1;HPM_P2
2023/03/06 00:00:20;;;;;;;;;;;;;;;10.17;37.04;98967.72;4439378;32;33749;-62
2023/03/06 00:02:48;;;;;;;;;;;;;;;10.29;37.06;98966.69;4445913;32;33315;-63
2023/03/06 00:05:15;;;;;;;;;;;;;;;10.21;36.90;98970.00;4441489;32;33876;-61
2023/03/06 00:07:42;;;;;;;;;;;;;;;10.18;37.55;98967.59;4439415;32;35221;-63
2023/03/06 00:10:12;;;;;;;;;;;;;;;10.23;37.40;98970.72;4436428;32;33869;-64
2023/03/06 00:12:39;;;;;;;;;;;;;;;10.36;36.81;98967.03;4435654;32;32835;-63
2023/03/06 00:15:07;;;;;;;;;;;;;;;10.25;37.13;98960.75;4441260;32;34277;-64
2023/03/06 00:17:34;;;;;;;;;;;;;;;10.23;37.26;98959.16;4439754;32;34115;-62
2023/03/06 00:20:02;;;;;;;;;;;;;;;10.36;36.87;98956.31;4441824;32;34637;-64
2023/03/06 00:22:29;;;;;;;;;;;;;;;10.34;37.21;98951.13;4442271;32;33020;-62
2023/03/06 00:24:56;;;;;;;;;;;;;;;10.31;37.34;98963.91;4438157;32;34392;-62
2023/03/06 00:27:25;;;;;;;;;;;;;;;9.82;38.15;98958.19;4437281;32;35462;-65
2023/03/06 00:29:56;;;;;;;;;;;;;;;10.32;37.42;98958.41;4435074;32;34630;-63
2023/03/06 00:32:23;;;;;;;;;;;;;;;10.34;37.12;98951.13;4434875;32;33257;-63
2023/03/06 00:34:51;;;;;;;;;;;;;;;10.28;36.91;98948.97;4446849;32;33955;-63
2023/03/06 00:37:18;;;;;;;;;;;;;;;10.42;36.54;98950.44;4438108;32;34278;-63
2023/03/06 00:39:46;;;;;;;;;;;;;;;10.23;36.45;98940.44;4437398;32;32437;-64
2023/03/06 00:42:14;;;;;;;;;;;;;;;10.35;36.06;98949.28;4436157;32;34857;-64
2023/03/06 00:44:41;;;;;;;;;;;;;;;10.34;36.17;98939.56;4442017;32;34128;-63
2023/03/06 00:47:10;;;;;;;;;;;;;;;10.42;36.16;98935.22;4437416;32;34012;-62
2023/03/06 00:49:37;;;;;;;;;;;;;;;10.41;36.40;98943.41;4443932;32;35268;-64
2023/03/06 00:52:04;;;;;;;;;;;;;;;10.27;36.84;98931.22;4446158;32;32823;-63
2023/03/06 00:54:31;;;;;;;;;;;;;;;10.40;36.93;98934.53;4443999;32;33874;-65
2023/03/06 00:56:59;;;;;;;;;;;;;;;10.41;37.06;98935.38;4440374;32;34826;-63
2023/03/06 00:59:29;;;;;;;;;;;;;;;10.26;37.46;98927.69;4438297;32;33480;-63
2023/03/06 01:01:56;;;;;;;;;;;;;;;10.24;37.51;98926.97;4446741;32;33834;-63
2023/03/06 01:04:24;;;;;;;;;;;;;;;10.19;37.53;98921.16;4450132;32;33934;-63
2023/03/06 01:06:51;;;;;;;;;;;;;;;9.81;37.83;98919.06;4441577;32;35436;-63
2023/03/06 01:09:18;;;;;;;;;;;;;;;10.04;36.99;98912.59;4439107;32;33921;-66
2023/03/06 01:11:45;;;;;;;;;;;;;;;10.38;36.94;98907.06;4436337;32;33372;-63
2023/03/06 01:14:13;;;;;;;;;;;;;;;10.30;37.10;98914.91;4437146;32;34139;-62
2023/03/06 01:16:41;;;;;;;;;;;;;;;10.25;36.48;98917.09;4439669;32;34422;-63
2023/03/06 01:19:08;;;;;;;;;;;;;;;10.27;37.12;98915.16;4441897;32;35282;-64
2023/03/06 01:21:36;;;;;;;;;;;;;;;10.12;37.10;98908.44;4450234;32;33529;-62
2023/03/06 01:24:03;;;;;;;;;;;;;;;10.35;36.52;98904.66;4439951;32;33885;-63
2023/03/06 01:26:30;;;;;;;;;;;;;;;10.38;36.41;98896.37;4446885;32;34315;-63
2023/03/06 01:28:57;;;;;;;;;;;;;;;10.30;36.42;98903.34;4442961;32;32816;-65
2023/03/06 01:31:27;;;;;;;;;;;;;;;10.52;36.37;98900.50;4444263;32;34943;-63
2023/03/06 01:33:54;;;;;;;;;;;;;;;10.44;36.77;98903.84;4442800;32;33601;-63
2023/03/06 01:36:22;;;;;;;;;;;;;;;10.09;36.83;98901.53;4447243;32;32690;-64
2023/03/06 01:38:49;;;;;;;;;;;;;;;10.19;36.34;98899.75;4439332;32;34086;-62
2023/03/06 01:41:17;;;;;;;;;;;;;;;10.13;37.21;98891.41;4446993;32;33379;-63
2023/03/06 01:43:44;;;;;;;;;;;;;;;10.46;36.56;98898.34;4441524;32;33870;-64
2023/03/06 01:46:15;;;;;;;;;;;;;;;10.28;37.01;98898.16;4443910;32;35496;-63
2023/03/06 01:48:42;;;;;;;;;;;;;;;10.05;37.33;98889.41;4440660;32;33144;-64
2023/03/06 01:51:11;;;;;;;;;;;;;;;10.28;36.72;98895.47;4437691;32;33177;-64
2023/03/06 01:53:38;;;;;;;;;;;;;;;10.54;36.20;98893.19;4442758;32;34293;-63
2023/03/06 01:56:05;;;;;;;;;;;;;;;10.31;36.84;98889.88;4440458;32;34262;-65
2023/03/06 01:58:32;;;;;;;;;;;;;;;10.44;36.60;98893.16;4439832;32;33853;-62
2023/03/06 02:01:00;;;;;;;;;;;;;;;10.03;37.28;98892.22;4449182;32;33482;-62
2023/03/06 02:03:28;;;;;;;;;;;;;;;10.07;37.55;98892.78;4449775;32;33602;-63
2023/03/06 02:05:56;;;;;;;;;;;;;;;10.40;36.95;98897.09;4444655;32;34559;-65
2023/03/06 02:08:23;;;;;;;;;;;;;;;10.28;37.28;98899.97;4439526;32;34711;-64
2023/03/06 02:10:58;;;;;;;;;;;;;;;10.36;36.97;98892.97;4437720;32;33043;-62
2023/03/06 02:13:25;;;;;;;;;;;;;;;10.43;36.79;98883.44;4442882;32;34684;-63
2023/03/06 02:15:52;;;;;;;;;;;;;;;10.34;37.16;98888.75;4445796;32;34163;-64
2023/03/06 02:18:20;;;;;;;;;;;;;;;10.40;36.92;98883.72;4445033;32;34738;-64
2023/03/06 02:20:54;;;;;;;;;;;;;;;10.33;37.20;98887.87;4438956;32;34475;-61
2023/03/06 02:23:31;;;;;;;;;;;;;;;10.27;37.41;98885.75;4441244;32;35286;-63
2023/03/06 02:25:58;;;;;;;;;;;;;;;10.12;37.63;98890.56;4436655;32;34371;-63
2023/03/06 02:28:26;;;;;;;;;;;;;;;10.36;37.37;98886.78;4439304;32;34198;-66
2023/03/06 02:30:53;;;;;;;;;;;;;;;10.41;37.34;98879.19;4451433;32;32663;-63
2023/03/06 02:33:25;;;;;;;;;;;;;;;10.22;37.41;98879.94;4448333;32;34062;-64
2023/03/06 02:35:53;;;;;;;;;;;;;;;10.26;37.44;98887.56;4438014;32;32787;-65
2023/03/06 02:38:23;;;;;;;;;;;;;;;10.20;37.39;98888.06;4439771;32;33573;-63
2023/03/06 02:40:51;;;;;;;;;;;;;;;10.19;38.14;98883.72;4438709;32;34106;-63
2023/03/06 02:43:22;;;;;;;;;;;;;;;10.23;37.98;98884.28;4441435;32;35051;-64
2023/03/06 02:45:50;;;;;;;;;;;;;;;10.40;37.28;98883.72;4449225;32;34927;-63
2023/03/06 02:48:18;;;;;;;;;;;;;;;9.97;38.10;98882.03;4443023;32;35263;-63
2023/03/06 02:50:45;;;;;;;;;;;;;;;10.22;37.61;98885.28;4439309;32;33239;-63
2023/03/06 02:53:13;;;;;;;;;;;;;;;10.12;38.29;98890.56;4437793;32;33880;-63
2023/03/06 02:55:40;;;;;;;;;;;;;;;10.06;38.35;98885.75;4451892;32;34268;-63
2023/03/06 02:58:08;;;;;;;;;;;;;;;10.32;37.79;98883.53;4447802;32;35431;-62
2023/03/06 03:00:35;;;;;;;;;;;;;;;9.97;38.24;98892.72;4438946;32;33088;-64
2023/03/06 03:03:03;;;;;;;;;;;;;;;10.29;37.89;98885.63;4446189;32;32844;-62
2023/03/06 03:05:30;;;;;;;;;;;;;;;10.41;37.56;98880.03;4439182;32;34221;-65
2023/03/06 03:07:58;;;;;;;;;;;;;;;10.33;37.90;98879.84;4450063;32;34276;-63
2023/03/06 03:10:26;;;;;;;;;;;;;;;10.24;38.23;98884.16;4435624;32;34188;-62
2023/03/06 03:12:54;;;;;;;;;;;;;;;9.67;39.25;98882.84;4449781;32;33095;-64
2023/03/06 03:15:22;;;;;;;;;;;;;;;10.10;38.25;98879.16;4436841;32;34299;-67
2023/03/06 03:17:49;;;;;;;;;;;;;;;10.07;38.20;98874.06;4440314;32;32457;-64
2023/03/06 03:20:18;;;;;;;;;;;;;;;9.69;38.92;98878.19;4438830;32;33172;-64
2023/03/06 03:22:48;;;;;;;;;;;;;;;9.65;38.87;98875.94;4441999;32;33988;-66
2023/03/06 03:25:15;;;;;;;;;;;;;;;10.20;37.68;98881.88;4446047;32;34206;-65
2023/03/06 03:27:43;;;;;;;;;;;;;;;10.28;37.28;98882.09;4441803;32;34795;-64
2023/03/06 03:30:11;;;;;;;;;;;;;;;10.31;37.86;98879.16;4452239;32;34106;-66
2023/03/06 03:32:38;;;;;;;;;;;;;;;10.19;37.98;98874.84;4448018;32;34679;-65
2023/03/06 03:35:06;;;;;;;;;;;;;;;9.63;39.12;98869.84;4441311;32;34213;-67
2023/03/06 03:37:34;;;;;;;;;;;;;;;9.73;38.59;98876.97;4439971;32;32515;-63
2023/03/06 03:40:03;;;;;;;;;;;;;;;9.99;38.24;98871.22;4441836;32;33921;-63
2023/03/06 03:42:31;;;;;;;;;;;;;;;9.97;38.31;98870.50;4439118;32;33944;-63
2023/03/06 03:44:58;;;;;;;;;;;;;;;10.11;38.17;98867.50;4440184;32;34482;-66
2023/03/06 03:47:26;;;;;;;;;;;;;;;10.07;38.11;98863.38;4440034;32;34032;-64
2023/03/06 03:49:54;;;;;;;;;;;;;;;9.73;38.66;98860.09;4444986;32;31855;-63
2023/03/06 03:52:21;;;;;;;;;;;;;;;10.10;37.83;98860.44;4447305;32;33386;-63
2023/03/06 03:54:48;;;;;;;;;;;;;;;10.23;37.73;98858.37;4444928;32;33929;-65
2023/03/06 03:57:16;;;;;;;;;;;;;;;10.22;37.67;98863.88;4445809;32;34139;-63
2023/03/06 03:59:44;;;;;;;;;;;;;;;10.06;38.41;98860.84;4438028;32;33232;-68
2023/03/06 04:02:12;;;;;;;;;;;;;;;10.17;38.32;98869.62;4445649;32;32613;-64
2023/03/06 04:04:40;;;;;;;;;;;;;;;10.30;37.88;98853.38;4441243;32;35388;-65
2023/03/06 04:07:08;;;;;;;;;;;;;;;10.26;37.81;98858.16;4448694;32;33751;-65
2023/03/06 04:09:36;;;;;;;;;;;;;;;10.30;37.94;98858.72;4440803;32;32793;-63
2023/03/06 04:12:03;;;;;;;;;;;;;;;10.10;38.25;98860.44;4453981;32;32827;-63
2023/03/06 04:14:31;;;;;;;;;;;;;;;10.22;38.05;98863.88;4447936;32;34021;-63
2023/03/06 04:16:59;;;;;;;;;;;;;;;9.88;39.10;98871.28;4440227;32;33716;-62
2023/03/06 04:19:26;;;;;;;;;;;;;;;10.06;38.49;98874.22;4437345;32;34491;-63
2023/03/06 04:21:53;;;;;;;;;;;;;;;10.02;38.40;98869.12;4437579;32;34098;-62
2023/03/06 04:24:21;;;;;;;;;;;;;;;9.99;38.52;98871.22;4437049;32;34081;-63
2023/03/06 04:26:48;;;;;;;;;;;;;;;10.00;38.59;98865.75;4448074;32;33477;-65
2023/03/06 04:29:16;;;;;;;;;;;;;;;10.05;38.59;98862.69;4450736;32;32926;-63
2023/03/06 04:31:43;;;;;;;;;;;;;;;10.14;37.94;98866.37;4437702;32;35301;-63
2023/03/06 04:34:11;;;;;;;;;;;;;;;10.13;37.98;98862.00;4448412;32;35533;-63
2023/03/06 04:36:43;;;;;;;;;;;;;;;9.58;39.14;98856.91;4437148;32;35040;-63
2023/03/06 04:39:11;;;;;;;;;;;;;;;9.93;38.48;98859.22;4441952;32;32047;-64
2023/03/06 04:41:39;;;;;;;;;;;;;;;10.12;38.19;98858.50;4436772;32;33940;-63
2023/03/06 04:44:07;;;;;;;;;;;;;;;10.01;38.35;98854.06;4442206;32;35481;-64
2023/03/06 04:46:34;;;;;;;;;;;;;;;10.10;38.22;98856.94;4444270;32;33733;-64
2023/03/06 04:49:02;;;;;;;;;;;;;;;10.14;38.26;98856.50;4437433;32;33192;-63
2023/03/06 04:51:29;;;;;;;;;;;;;;;10.10;38.28;98856.94;4436631;32;33928;-65
2023/03/06 04:53:57;;;;;;;;;;;;;;;10.16;38.45;98859.06;4440379;32;35463;-64
2023/03/06 04:56:24;;;;;;;;;;;;;;;10.32;37.87;98848.75;4450584;32;34164;-64
2023/03/06 04:58:51;;;;;;;;;;;;;;;9.95;38.61;98851.06;4447821;32;33647;-64
2023/03/06 05:01:18;;;;;;;;;;;;;;;10.15;38.53;98850.19;4445763;32;32600;-64
2023/03/06 05:03:46;;;;;;;;;;;;;;;10.14;38.33;98847.66;4438489;32;34437;-63
2023/03/06 05:06:13;;;;;;;;;;;;;;;10.33;38.35;98849.59;4441701;32;34220;-65
2023/03/06 05:08:40;;;;;;;;;;;;;;;10.38;37.91;98850.87;4441294;32;33447;-63
2023/03/06 05:11:08;;;;;;;;;;;;;;;10.37;37.67;98851.88;4445178;32;34027;-64
2023/03/06 05:13:35;;;;;;;;;;;;;;;10.10;38.45;98856.94;4441124;32;34277;-62
2023/03/06 05:16:03;;;;;;;;;;;;;;;10.15;38.83;98852.88;4445300;32;33674;-62
2023/03/06 05:18:30;;;;;;;;;;;;;;;10.35;38.35;98848.47;4436815;32;33458;-62
2023/03/06 05:20:58;;;;;;;;;;;;;;;10.45;37.79;98852.03;4436139;32;35199;-62
2023/03/06 05:23:27;;;;;;;;;;;;;;;10.45;37.79;98854.72;4445960;32;34263;-62
2023/03/06 05:25:54;;;;;;;;;;;;;;;10.45;37.91;98854.72;4447484;32;34052;-64
2023/03/06 05:28:21;;;;;;;;;;;;;;;10.41;38.15;98847.94;4446102;32;32341;-65
2023/03/06 05:30:48;;;;;;;;;;;;;;;10.41;38.23;98850.63;4436998;32;34184;-64
2023/03/06 05:33:16;;;;;;;;;;;;;;;10.39;38.34;98852.56;4443995;32;34035;-63
2023/03/06 05:35:44;;;;;;;;;;;;;;;10.28;39.32;98847.34;4446074;32;34260;-62
2023/03/06 05:38:11;;;;;;;;;;;;;;;10.41;39.01;98852.44;4446646;32;33779;-64
2023/03/06 05:40:39;;;;;;;;;;;;;;;10.14;39.00;98853.00;4443603;32;35080;-63
2023/03/06 05:43:07;;;;;;;;;;;;;;;10.21;39.49;98852.34;4445528;32;33189;-62
2023/03/06 05:45:34;;;;;;;;;;;;;;;10.24;39.43;98853.88;4443836;32;33905;-63
2023/03/06 05:48:01;;;;;;;;;;;;;;;10.49;38.80;98848.09;4439602;32;33261;-66
2023/03/06 05:50:29;;;;;;;;;;;;;;;10.70;38.13;98850.69;4439530;32;34236;-67
2023/03/06 05:52:56;;;;;;;;;;;;;;;10.54;39.00;98854.88;4446358;32;33710;-63
2023/03/06 05:55:23;;;;;;;;;;;;;;;10.31;39.51;98867.63;4437609;32;34582;-64
2023/03/06 05:57:51;;;;;;;;;;;;;;;10.37;39.27;98859.91;4442946;32;34452;-66
2023/03/06 06:00:19;;;;;;;;;;;;;;;10.65;38.02;98855.59;4445552;32;34897;-67
2023/03/06 06:02:46;;;;;;;;;;;;;;;10.55;38.23;98854.75;4446227;32;35041;-64
2023/03/06 06:05:13;;;;;;;;;;;;;;;10.72;37.94;98854.09;4447234;32;33872;-64
2023/03/06 06:07:40;;;;;;;;;;;;;;;10.68;37.87;98859.84;4438482;32;32613;-64
2023/03/06 06:10:09;;;;;;;;;;;;;;;10.29;40.00;98862.38;4443210;32;32873;-64
2023/03/06 06:12:36;;;;;;;;;;;;;;;10.56;38.83;98856.44;4442468;32;34216;-64
2023/03/06 06:15:05;;;;;;;;;;;;;;;10.60;38.64;98855.19;4435960;32;34116;-65
2023/03/06 06:17:32;;;;;;;;;;;;;;;10.55;37.97;98859.25;4435325;32;33506;-63
2023/03/06 06:19:59;;;;;;;;;;;;;;;10.39;38.55;98857.09;4434913;32;35067;-65
2023/03/06 06:22:27;;;;;;;;;;;;;;;10.45;38.20;98864.56;4440687;32;33816;-63
2023/03/06 06:24:54;;;;;;;;;;;;;;;10.42;38.33;98873.69;4440026;32;35157;-63
2023/03/06 06:27:21;;;;;;;;;;;;;;;10.24;39.12;98881.50;4434547;32;33042;-65
2023/03/06 06:29:49;;;;;;;;;;;;;;;10.16;39.63;98888.47;4436430;32;34777;-65
2023/03/06 06:32:16;;;;;;;;;;;;;;;10.21;39.14;98879.09;4440410;32;34204;-65
2023/03/06 06:34:44;;;;;;;;;;;;;;;10.55;38.26;98870.78;4440022;32;32796;-64
2023/03/06 06:37:11;;;;;;;;;;;;;;;10.63;38.02;98880.84;4436198;32;33127;-65
2023/03/06 06:39:39;;;;;;;;;;;;;;;10.32;39.02;98874.66;4442510;32;33984;-63
2023/03/06 06:42:07;;;;;;;;;;;;;;;10.56;38.32;98869.84;4443232;32;33247;-64
2023/03/06 06:44:54;;;;;;;;;;;;;;;10.63;38.83;98870.12;4438449;32;33909;-64
2023/03/06 06:47:22;;;;;;;;;;;;;;;10.53;39.50;98870.09;4441766;32;33548;-66
2023/03/06 06:49:52;;;;;;;;;;;;;;;10.55;39.17;98864.59;4438488;32;33396;-63
2023/03/06 06:52:19;;;;;;;;;;;;;;;10.70;39.07;98869.44;4440358;32;35153;-64
2023/03/06 06:54:47;;;;;;;;;;;;;;;10.89;38.42;98870.47;4440218;32;34443;-64
2023/03/06 06:57:14;;;;;;;;;;;;;;;10.70;38.87;98869.44;4436289;32;32044;-65
2023/03/06 06:59:41;;;;;;;;;;;;;;;10.49;39.42;98868.66;4434799;32;34125;-63
2023/03/06 07:02:12;;;;;;;;;;;;;;;10.70;38.87;98866.75;4444756;32;34147;-66
2023/03/06 07:04:39;;;;;;;;;;;;;;;10.44;39.66;98882.44;4447985;32;34061;-66
2023/03/06 07:07:26;;;;;;;;;;;;;;;10.68;39.09;98875.91;4439682;32;34532;-63
2023/03/06 07:09:54;;;;;;;;;;;;;;;11.07;38.28;98870.63;4435502;32;33836;-65
2023/03/06 07:12:21;;;;;;;;;;;;;;;11.00;38.06;98873.00;4437326;32;34358;-66
2023/03/06 07:14:48;;;;;;;;;;;;;;;10.94;38.31;98877.09;4443293;32;34277;-63
2023/03/06 07:17:15;;;;;;;;;;;;;;;11.03;38.52;98886.13;4438491;32;33288;-65
2023/03/06 07:19:43;;;;;;;;;;;;;;;11.10;38.60;98886.41;4447970;32;32533;-66
2023/03/06 07:22:10;;;;;;;;;;;;;;;11.07;38.59;98890.22;4445849;32;33193;-64
2023/03/06 07:24:37;;;;;;;;;;;;;;;11.22;37.92;98888.00;4446617;32;34472;-64
2023/03/06 07:27:05;;;;;;;;;;;;;;;11.16;38.18;98897.41;4449839;32;31867;-67
2023/03/06 07:29:33;;;;;;;;;;;;;;;11.15;38.20;98892.22;4438044;32;34095;-64
2023/03/06 07:32:00;;;;;;;;;;;;;;;11.16;38.26;98886.72;4438119;32;34536;-64
2023/03/06 07:34:27;;;;;;;;;;;;;;;11.19;38.48;98893.63;4451784;32;34072;-66
2023/03/06 07:36:55;;;;;;;;;;;;;;;10.76;39.52;98891.28;4439523;32;35776;-64
2023/03/06 07:39:22;;;;;;;;;;;;;;;11.11;38.98;98890.81;4443756;32;33809;-65
2023/03/06 07:41:51;;;;;;;;;;;;;;;11.24;38.74;98885.19;4446001;32;34262;-65
2023/03/06 07:44:18;;;;;;;;;;;;;;;11.18;38.89;98890.09;4438677;32;35319;-65
2023/03/06 07:46:45;;;;;;;;;;;;;;;11.13;39.22;98888.81;4436465;32;32554;-65
2023/03/06 07:49:12;;;;;;;;;;;;;;;11.46;38.19;98890.28;4450585;32;32806;-65
2023/03/06 07:51:40;;;;;;;;;;;;;;;11.50;38.36;98897.03;4446283;32;34417;-64
2023/03/06 07:54:07;;;;;;;;;;;;;;;11.49;38.31;98897.16;4451499;32;34468;-66
2023/03/06 07:56:34;;;;;;;;;;;;;;;11.55;38.24;98902.78;4443333;32;33302;-64
2023/03/06 07:59:02;;;;;;;;;;;;;;;11.60;38.11;98900.56;4442160;32;34070;-64
2023/03/06 08:01:29;;;;;;;;;;;;;;;11.48;38.41;98899.00;4437912;32;35540;-63
2023/03/06 08:03:57;;;;;;;;;;;;;;;11.42;38.90;98905.75;4445671;32;34946;-67
2023/03/06 08:06:25;;;;;;;;;;;;;;;11.57;38.53;98910.72;4446318;32;31724;-63
2023/03/06 08:08:53;;;;;;;;;;;;;;;11.64;38.15;98915.34;4448235;32;34091;-64
2023/03/06 08:11:21;;;;;;;;;;;;;;;11.55;38.08;98915.34;4443180;32;35519;-63
2023/03/06 08:13:51;;;;;;;;;;;;;;;11.18;39.26;98913.38;4441805;32;33011;-64
2023/03/06 08:16:22;;;;;;;;;;;;;;;10.95;40.45;98915.44;4437415;32;33264;-65
2023/03/06 08:18:49;;;;;;;;;;;;;;;11.33;39.51;98908.44;4452417;32;34167;-64
2023/03/06 08:21:18;;;;;;;;;;;;;;;11.50;39.31;98902.38;4440622;32;35514;-64
2023/03/06 08:23:45;;;;;;;;;;;;;;;11.56;39.29;98890.28;4445485;32;34231;-63
2023/03/06 08:26:14;;;;;;;;;;;;;;;11.62;39.36;98897.72;4437311;32;32889;-65
2023/03/06 08:28:41;;;;;;;;;;;;;;;11.46;39.82;98892.94;4439875;32;35037;-63
2023/03/06 08:31:09;;;;;;;;;;;;;;;11.32;39.64;98893.34;4444573;32;33972;-62
2023/03/06 08:33:37;;;;;;;;;;;;;;;11.50;39.97;98896.19;4448136;32;35065;-62
2023/03/06 08:36:04;;;;;;;;;;;;;;;11.59;38.91;98890.00;4439807;32;33654;-62
2023/03/06 08:38:31;;;;;;;;;;;;;;;11.79;38.87;98890.81;4443102;32;34333;-62
2023/03/06 08:40:58;;;;;;;;;;;;;;;12.05;38.51;98883.88;4439988;32;34163;-61
2023/03/06 08:43:26;;;;;;;;;;;;;;;12.49;37.75;98888.69;4444194;32;34319;-61
2023/03/06 08:45:54;;;;;;;;;;;;;;;12.77;36.58;98887.66;4442578;32;33222;-63
2023/03/06 08:48:21;;;;;;;;;;;;;;;11.86;38.65;98890.13;4448692;32;34566;-64
2023/03/06 08:50:49;;;;;;;;;;;;;;;11.81;38.31;98884.31;4443356;32;34261;-63
2023/03/06 08:53:16;;;;;;;;;;;;;;;11.71;38.48;98891.50;4448188;32;34114;-66
2023/03/06 08:55:44;;;;;;;;;;;;;;;12.09;37.75;98885.25;4445223;32;33476;-62
2023/03/06 08:58:11;;;;;;;;;;;;;;;12.21;37.48;98877.88;4436830;32;33830;-63
2023/03/06 09:00:38;;;;;;;;;;;;;;;11.75;38.10;98882.22;4444398;32;34642;-64
2023/03/06 09:03:05;;;;;;;;;;;;;;;11.91;38.26;98880.78;4446414;32;34121;-61
2023/03/06 09:05:33;;;;;;;;;;;;;;;11.95;37.91;98871.47;4443039;32;33868;-61
2023/03/06 09:08:00;;;;;;;;;;;;;;;12.34;37.84;98874.88;4434797;32;35737;-62
2023/03/06 09:10:27;;;;;;;;;;;;;;;12.18;37.68;98871.97;4437344;32;34146;-62
2023/03/06 09:12:55;;;;;;;;;;;;;;;12.26;37.76;98867.56;4437258;32;34121;-62
2023/03/06 09:15:22;;;;;;;;;;;;;;;11.96;38.26;98865.97;4419686;32;819787;-63
2023/03/06 09:17:50;;;;;;;;;;;;;;;11.15;38.89;98870.78;4447504;32;33722;-63
2023/03/06 09:20:17;;;;;;;;;;;;;;;12.02;37.49;98859.19;4443932;32;32897;-62
2023/03/06 09:22:45;;;;;;;;;;;;;;;11.70;37.62;98856.81;4434406;32;33725;-67
2023/03/06 09:25:13;;;;;;;;;;;;;;;12.14;36.92;98862.53;4442706;32;33359;-66
2023/03/06 09:27:40;;;;;;;;;;;;;;;12.73;36.27;98862.12;4440869;32;32988;-63
2023/03/06 09:30:07;;;;;;;;;;;;;;;11.86;37.93;98855.25;4448358;32;35506;-64
2023/03/06 09:32:35;;;;;;;;;;;;;;;11.69;37.98;98853.28;4445175;32;34449;-62
2023/03/06 09:35:02;;;;;;;;;;;;;;;11.92;37.18;98851.16;4441630;32;33400;-62
2023/03/06 09:37:29;;;;;;;;;;;;;;;11.23;38.59;98844.13;4435213;32;33567;-63
2023/03/06 09:39:57;;;;;;;;;;;;;;;11.09;39.38;98842.72;4434793;32;34358;-63
2023/03/06 09:42:24;;;;;;;;;;;;;;;11.24;38.38;98843.16;4441914;32;34373;-63
2023/03/06 09:44:55;;;;;;;;;;;;;;;11.31;38.01;98844.28;4446617;32;34455;-64
2023/03/06 09:47:41;;;;;;;;;;;;;;;9.83;40.65;98842.31;4443458;32;33825;-65
2023/03/06 09:50:18;;;;;;;;;;;;;;;10.59;40.50;98833.91;4443253;32;34200;-66
2023/03/06 09:52:58;;;;;;;;;;;;;;;10.45;40.31;98835.97;4443353;32;34210;-66
2023/03/06 09:55:26;;;;;;;;;;;;;;;10.77;38.81;98836.78;4438218;32;31714;-63
2023/03/06 09:57:54;;;;;;;;;;;;;;;9.81;40.85;98838.91;4425593;32;32739;-64
2023/03/06 10:00:33;;;;;;;;;;;;;;;10.77;39.54;98834.09;4444359;32;33968;-63
2023/03/06 10:03:19;;;;;;;;;;;;;;;10.20;40.75;98831.91;4440693;32;35256;-64
2023/03/06 10:05:48;;;;;;;;;;;;;;;9.93;41.62;98827.16;4440961;32;34500;-63
2023/03/06 10:08:21;;;;;;;;;;;;;;;9.61;42.63;98829.09;4436305;32;34035;-64
2023/03/06 10:10:48;;;;;;;;;;;;;;;9.59;42.12;98823.84;4436464;32;35185;-67
2023/03/06 10:13:34;;;;;;;;;;;;;;;9.74;41.85;98827.91;4437354;32;33512;-63
2023/03/06 10:16:05;;;;;;;;;;;;;;;9.06;43.88;98832.75;4438944;32;32180;-63
2023/03/06 10:18:37;;;;;;;;;;;;;;;9.30;43.50;98829.84;4443534;32;33367;-63
2023/03/06 10:21:05;;;;;;;;;;;;;;;9.49;42.22;98829.13;4449612;32;35340;-67
2023/03/06 10:23:53;;;;;;;;;;;;;;;8.82;42.89;98824.94;4436561;32;34311;-63
2023/03/06 10:26:35;;;;;;;;;;;;;;;9.23;42.43;98831.34;4445464;32;33383;-62
2023/03/06 10:29:12;;;;;;;;;;;;;;;9.62;41.03;98833.44;4437062;32;33844;-63
2023/03/06 10:31:40;;;;;;;;;;;;;;;9.64;40.81;98827.00;4439110;32;35314;-63
2023/03/06 10:34:13;;;;;;;;;;;;;;;10.70;39.13;98826.63;4435560;32;35207;-63
2023/03/06 10:36:40;;;;;;;;;;;;;;;10.06;40.04;98820.75;4438479;32;34373;-65
2023/03/06 10:39:15;;;;;;;;;;;;;;;8.98;41.92;98818.34;4436304;32;33047;-64
2023/03/06 10:41:42;;;;;;;;;;;;;;;9.22;41.74;98810.97;4437096;32;34249;-64
2023/03/06 10:44:11;;;;;;;;;;;;;;;8.62;43.91;98801.72;4436078;32;33148;-64
2023/03/06 10:46:45;;;;;;;;;;;;;;;9.62;41.80;98806.72;4437326;32;33377;-64
2023/03/06 10:49:13;;;;;;;;;;;;;;;9.35;41.79;98794.75;4443526;32;34666;-65
2023/03/06 10:51:42;;;;;;;;;;;;;;;8.90;42.55;98786.97;4448734;32;34263;-64
2023/03/06 10:54:12;;;;;;;;;;;;;;;8.60;43.52;98788.53;4444423;32;35288;-64
2023/03/06 10:56:42;;;;;;;;;;;;;;;8.72;43.37;98783.13;4447468;32;32324;-64
2023/03/06 10:59:11;;;;;;;;;;;;;;;8.67;43.27;98788.87;4447365;32;32451;-65
2023/03/06 11:01:39;;;;;;;;;;;;;;;8.54;43.96;98780.16;4441435;32;34318;-64
2023/03/06 11:04:22;;;;;;;;;;;;;;;8.49;43.99;98772.53;4440155;32;34211;-66
2023/03/06 11:07:08;;;;;;;;;;;;;;;9.15;42.84;98774.22;4442624;32;33291;-64
2023/03/06 11:09:35;;;;;;;;;;;;;;;9.79;41.18;98758.87;4446641;32;35164;-64
2023/03/06 11:12:16;;;;;;;;;;;;;;;9.39;41.22;98756.13;4439312;32;32948;-64
2023/03/06 11:14:43;;;;;;;;;;;;;;;9.03;42.77;98746.75;4440991;32;34047;-63
2023/03/06 11:17:27;;;;;;;;;;;;;;;9.91;40.99;98738.22;4439660;32;33504;-63
2023/03/06 11:20:13;;;;;;;;;;;;;;;9.19;41.96;98735.63;4447183;32;33704;-64
2023/03/06 11:22:40;;;;;;;;;;;;;;;9.77;41.03;98730.59;4447222;32;34494;-63
2023/03/06 11:25:08;;;;;;;;;;;;;;;9.90;40.34;98725.00;4440730;32;34839;-64
2023/03/06 11:27:37;;;;;;;;;;;;;;;8.92;42.54;98720.94;4441498;32;34374;-62
2023/03/06 11:30:04;;;;;;;;;;;;;;;8.98;42.08;98712.41;4444103;32;35058;-63
2023/03/06 11:32:37;;;;;;;;;;;;;;;8.98;42.28;98704.41;4445239;32;35568;-64
2023/03/06 11:35:24;;;;;;;;;;;;;;;8.92;43.34;98694.25;4449581;32;34205;-64
2023/03/06 11:37:53;;;;;;;;;;;;;;;9.54;41.81;98685.34;4443282;32;32856;-64
2023/03/06 11:40:23;;;;;;;;;;;;;;;9.59;42.01;98668.06;4440160;32;34174;-65
2023/03/06 11:42:55;;;;;;;;;;;;;;;9.27;42.21;98663.69;4444551;32;34318;-65
2023/03/06 11:45:24;;;;;;;;;;;;;;;8.49;43.34;98668.53;4438342;32;34979;-66
2023/03/06 11:48:09;;;;;;;;;;;;;;;9.76;41.58;98654.94;4441429;32;33001;-64
2023/03/06 11:50:38;;;;;;;;;;;;;;;9.01;42.25;98658.78;4445246;32;34476;-63
2023/03/06 11:53:05;;;;;;;;;;;;;;;9.98;40.34;98650.31;4437041;32;35326;-64
2023/03/06 11:55:39;;;;;;;;;;;;;;;9.44;41.51;98644.41;4443543;32;35599;-64
2023/03/06 11:58:06;;;;;;;;;;;;;;;8.79;43.14;98648.25;4441256;32;33935;-62
2023/03/06 12:00:36;;;;;;;;;;;;;;;9.74;41.37;98648.03;4440838;32;33810;-63
2023/03/06 12:03:21;;;;;;;;;;;;;;;9.79;41.52;98635.06;4448082;32;33807;-65
2023/03/06 12:05:53;;;;;;;;;;;;;;;10.45;39.98;98638.00;4440423;32;34397;-63
2023/03/06 12:08:25;;;;;;;;;;;;;;;10.43;39.33;98642.69;4437603;32;34514;-63
2023/03/06 12:11:04;;;;;;;;;;;;;;;9.86;40.58;98630.91;4437325;32;35323;-64
2023/03/06 12:13:34;;;;;;;;;;;;;;;9.83;40.94;98628.50;4448047;32;34256;-62
2023/03/06 12:16:21;;;;;;;;;;;;;;;9.27;41.42;98626.31;4443214;32;33043;-65
2023/03/06 12:18:51;;;;;;;;;;;;;;;10.05;40.70;98627.41;4439110;32;32516;-64
2023/03/06 12:21:18;;;;;;;;;;;;;;;9.84;40.72;98621.31;4444311;32;35408;-64
2023/03/06 12:24:04;;;;;;;;;;;;;;;10.57;39.59;98617.31;4445281;32;35289;-64
2023/03/06 12:26:34;;;;;;;;;;;;;;;10.80;39.34;98617.00;4444290;32;34701;-61
2023/03/06 12:29:04;;;;;;;;;;;;;;;10.62;39.82;98614.22;4447470;32;33202;-66
2023/03/06 12:31:38;;;;;;;;;;;;;;;10.59;39.64;98609.97;4447827;32;33700;-61
2023/03/06 12:34:41;;;;;;;;;;;;;;;10.95;38.68;98611.06;4452219;32;34078;-62
2023/03/06 12:37:12;;;;;;;;;;;;;;;10.95;39.38;98605.72;4383298;32;35307;-63
2023/03/06 12:39:45;;;;;;;;;;;;;;;11.39;38.25;98600.59;4432395;32;32048;-64
2023/03/06 12:42:15;;;;;;;;;;;;;;;10.12;39.07;98607.16;4437552;32;34117;-62
2023/03/06 12:45:01;;;;;;;;;;;;;;;9.29;40.83;98611.88;4447724;32;35539;-63
2023/03/06 12:47:29;;;;;;;;;;;;;;;8.99;41.27;98606.50;4445508;32;33166;-62
2023/03/06 12:49:58;;;;;;;;;;;;;;;9.83;40.08;98599.09;4452074;32;31764;-62
2023/03/06 12:52:26;;;;;;;;;;;;;;;9.88;39.54;98601.34;4447124;32;32895;-64
2023/03/06 12:55:00;;;;;;;;;;;;;;;10.04;39.13;98593.63;4438387;32;34264;-63
2023/03/06 12:57:28;;;;;;;;;;;;;;;9.78;39.64;98594.16;4442385;32;32653;-63